sensor_id;sensor_type;location;lat;lon;timestamp;P1;durP1;ratioP1;P2;durP2;ratioP2
34212;SDS011;20477;51.390;8.102;2023-01-23T00:01:18;34.75;;;22.15;;
34212;SDS011;20477;51.390;8.102;2023-01-23T00:03:50;33.42;;;21.25;;
34212;SDS011;20477;51.390;8.102;2023-01-23T00:06:19;31.75;;;19.92;;
34212;SDS011;20477;51.390;8.102;2023-01-23T00:08:47;33.47;;;21.02;;
34212;SDS011;20477;51.390;8.102;2023-01-23T00:11:16;32.40;;;20.90;;
34212;SDS011;20477;51.390;8.102;2023-01-23T00:13:45;33.28;;;21.17;;
34212;SDS011;20477;51.390;8.102;2023-01-23T00:16:15;30.58;;;20.98;;
34212;SDS011;20477;51.390;8.102;2023-01-23T00:18:46;28.45;;;18.85;;
34212;SDS011;20477;51.390;8.102;2023-01-23T00:21:16;30.40;;;20.30;;
34212;SDS011;20477;51.390;8.102;2023-01-23T00:23:46;29.60;;;19.55;;
34212;SDS011;20477;51.390;8.102;2023-01-23T00:26:16;33.25;;;20.20;;
34212;SDS011;20477;51.390;8.102;2023-01-23T00:28:45;30.27;;;19.60;;
34212;SDS011;20477;51.390;8.102;2023-01-23T00:31:15;31.90;;;19.85;;
34212;SDS011;20477;51.390;8.102;2023-01-23T00:33:46;29.90;;;19.67;;
34212;SDS011;20477;51.390;8.102;2023-01-23T00:36:14;27.98;;;19.17;;
34212;SDS011;20477;51.390;8.102;2023-01-23T00:38:42;29.27;;;19.58;;
34212;SDS011;20477;51.390;8.102;2023-01-23T00:41:11;33.42;;;20.23;;
34212;SDS011;20477;51.390;8.102;2023-01-23T00:43:39;31.23;;;20.40;;
34212;SDS011;20477;51.390;8.102;2023-01-23T00:46:07;32.33;;;20.30;;
34212;SDS011;20477;51.390;8.102;2023-01-23T00:48:37;31.20;;;20.60;;
34212;SDS011;20477;51.390;8.102;2023-01-23T00:51:05;32.17;;;20.65;;
34212;SDS011;20477;51.390;8.102;2023-01-23T00:53:34;33.05;;;20.35;;
34212;SDS011;20477;51.390;8.102;2023-01-23T00:56:02;31.63;;;20.05;;
34212;SDS011;20477;51.390;8.102;2023-01-23T00:58:30;30.10;;;19.25;;
34212;SDS011;20477;51.390;8.102;2023-01-23T01:00:59;30.58;;;19.65;;
34212;SDS011;20477;51.390;8.102;2023-01-23T01:03:27;32.22;;;19.02;;
34212;SDS011;20477;51.390;8.102;2023-01-23T01:05:57;32.08;;;20.10;;
34212;SDS011;20477;51.390;8.102;2023-01-23T01:08:25;29.50;;;19.77;;
34212;SDS011;20477;51.390;8.102;2023-01-23T01:10:53;29.67;;;19.23;;
34212;SDS011;20477;51.390;8.102;2023-01-23T01:13:21;29.30;;;18.63;;
34212;SDS011;20477;51.390;8.102;2023-01-23T01:15:50;35.47;;;19.92;;
34212;SDS011;20477;51.390;8.102;2023-01-23T01:18:19;29.38;;;19.30;;
34212;SDS011;20477;51.390;8.102;2023-01-23T01:20:48;29.33;;;19.92;;
34212;SDS011;20477;51.390;8.102;2023-01-23T01:23:18;30.73;;;19.33;;
34212;SDS011;20477;51.390;8.102;2023-01-23T01:25:46;29.05;;;19.65;;
34212;SDS011;20477;51.390;8.102;2023-01-23T01:28:14;29.13;;;18.75;;
34212;SDS011;20477;51.390;8.102;2023-01-23T01:30:43;32.20;;;20.95;;
34212;SDS011;20477;51.390;8.102;2023-01-23T01:33:11;31.50;;;21.15;;
34212;SDS011;20477;51.390;8.102;2023-01-23T01:35:39;30.73;;;20.38;;
34212;SDS011;20477;51.390;8.102;2023-01-23T01:38:07;31.65;;;20.98;;
34212;SDS011;20477;51.390;8.102;2023-01-23T01:40:37;31.52;;;20.85;;
34212;SDS011;20477;51.390;8.102;2023-01-23T01:43:06;30.55;;;20.67;;
34212;SDS011;20477;51.390;8.102;2023-01-23T01:48:45;31.20;;;20.48;;
34212;SDS011;20477;51.390;8.102;2023-01-23T01:51:25;29.83;;;19.88;;
34212;SDS011;20477;51.390;8.102;2023-01-23T01:53:59;31.88;;;21.02;;
34212;SDS011;20477;51.390;8.102;2023-01-23T01:56:33;36.60;;;22.52;;
34212;SDS011;20477;51.390;8.102;2023-01-23T01:59:04;27.27;;;15.80;;
34212;SDS011;20477;51.390;8.102;2023-01-23T02:01:33;34.35;;;21.80;;
34212;SDS011;20477;51.390;8.102;2023-01-23T02:04:04;36.42;;;22.80;;
34212;SDS011;20477;51.390;8.102;2023-01-23T02:06:36;33.20;;;21.80;;
34212;SDS011;20477;51.390;8.102;2023-01-23T02:09:06;34.78;;;22.88;;
34212;SDS011;20477;51.390;8.102;2023-01-23T02:11:40;33.95;;;21.98;;
34212;SDS011;20477;51.390;8.102;2023-01-23T02:14:09;33.83;;;21.55;;
34212;SDS011;20477;51.390;8.102;2023-01-23T02:16:37;32.55;;;22.25;;
34212;SDS011;20477;51.390;8.102;2023-01-23T02:19:15;38.42;;;24.13;;
34212;SDS011;20477;51.390;8.102;2023-01-23T02:21:51;31.83;;;21.25;;
34212;SDS011;20477;51.390;8.102;2023-01-23T02:24:22;36.78;;;23.10;;
34212;SDS011;20477;51.390;8.102;2023-01-23T02:26:55;34.15;;;21.88;;
34212;SDS011;20477;51.390;8.102;2023-01-23T02:29:23;39.95;;;22.13;;
34212;SDS011;20477;51.390;8.102;2023-01-23T02:31:51;37.25;;;23.65;;
34212;SDS011;20477;51.390;8.102;2023-01-23T02:34:21;38.88;;;23.92;;
34212;SDS011;20477;51.390;8.102;2023-01-23T02:36:51;38.80;;;23.10;;
34212;SDS011;20477;51.390;8.102;2023-01-23T02:39:19;40.20;;;24.10;;
34212;SDS011;20477;51.390;8.102;2023-01-23T02:41:48;39.90;;;24.17;;
34212;SDS011;20477;51.390;8.102;2023-01-23T02:44:19;37.88;;;23.58;;
34212;SDS011;20477;51.390;8.102;2023-01-23T02:46:51;40.67;;;23.25;;
34212;SDS011;20477;51.390;8.102;2023-01-23T02:49:20;41.65;;;25.20;;
34212;SDS011;20477;51.390;8.102;2023-01-23T02:51:51;39.35;;;24.80;;
34212;SDS011;20477;51.390;8.102;2023-01-23T02:54:23;38.33;;;23.70;;
34212;SDS011;20477;51.390;8.102;2023-01-23T02:56:51;40.60;;;25.65;;
34212;SDS011;20477;51.390;8.102;2023-01-23T02:59:21;35.67;;;22.55;;
34212;SDS011;20477;51.390;8.102;2023-01-23T03:02:06;40.45;;;25.45;;
34212;SDS011;20477;51.390;8.102;2023-01-23T03:04:34;41.00;;;24.88;;
34212;SDS011;20477;51.390;8.102;2023-01-23T03:07:02;40.40;;;24.80;;
34212;SDS011;20477;51.390;8.102;2023-01-23T03:09:30;41.20;;;24.52;;
34212;SDS011;20477;51.390;8.102;2023-01-23T03:11:59;43.40;;;25.73;;
34212;SDS011;20477;51.390;8.102;2023-01-23T03:14:29;45.85;;;27.13;;
34212;SDS011;20477;51.390;8.102;2023-01-23T03:16:59;47.03;;;25.10;;
34212;SDS011;20477;51.390;8.102;2023-01-23T03:19:28;40.80;;;22.85;;
34212;SDS011;20477;51.390;8.102;2023-01-23T03:21:56;41.45;;;22.85;;
34212;SDS011;20477;51.390;8.102;2023-01-23T03:24:24;44.25;;;25.30;;
34212;SDS011;20477;51.390;8.102;2023-01-23T03:26:53;41.50;;;22.73;;
34212;SDS011;20477;51.390;8.102;2023-01-23T03:29:22;37.33;;;21.02;;
34212;SDS011;20477;51.390;8.102;2023-01-23T03:32:11;43.83;;;24.10;;
34212;SDS011;20477;51.390;8.102;2023-01-23T03:34:40;40.92;;;22.00;;
34212;SDS011;20477;51.390;8.102;2023-01-23T03:37:09;39.13;;;23.15;;
34212;SDS011;20477;51.390;8.102;2023-01-23T03:39:38;42.22;;;25.63;;
34212;SDS011;20477;51.390;8.102;2023-01-23T03:42:24;46.67;;;24.50;;
34212;SDS011;20477;51.390;8.102;2023-01-23T03:44:52;43.25;;;24.80;;
34212;SDS011;20477;51.390;8.102;2023-01-23T03:47:22;43.47;;;26.13;;
34212;SDS011;20477;51.390;8.102;2023-01-23T03:49:51;43.53;;;24.85;;
34212;SDS011;20477;51.390;8.102;2023-01-23T03:52:20;41.10;;;24.00;;
34212;SDS011;20477;51.390;8.102;2023-01-23T03:54:48;43.95;;;24.92;;
34212;SDS011;20477;51.390;8.102;2023-01-23T03:57:16;42.08;;;24.05;;
34212;SDS011;20477;51.390;8.102;2023-01-23T03:59:45;42.13;;;24.00;;
34212;SDS011;20477;51.390;8.102;2023-01-23T04:02:13;37.17;;;23.23;;
34212;SDS011;20477;51.390;8.102;2023-01-23T04:04:43;39.60;;;23.92;;
34212;SDS011;20477;51.390;8.102;2023-01-23T04:07:11;39.00;;;22.20;;
34212;SDS011;20477;51.390;8.102;2023-01-23T04:09:39;38.10;;;22.73;;
34212;SDS011;20477;51.390;8.102;2023-01-23T04:12:08;39.40;;;25.02;;
34212;SDS011;20477;51.390;8.102;2023-01-23T04:14:36;35.05;;;22.15;;
34212;SDS011;20477;51.390;8.102;2023-01-23T04:17:04;34.25;;;22.15;;
34212;SDS011;20477;51.390;8.102;2023-01-23T04:19:32;37.28;;;23.60;;
34212;SDS011;20477;51.390;8.102;2023-01-23T04:22:02;39.88;;;23.02;;
34212;SDS011;20477;51.390;8.102;2023-01-23T04:24:31;40.78;;;23.75;;
34212;SDS011;20477;51.390;8.102;2023-01-23T04:26:59;42.38;;;23.35;;
34212;SDS011;20477;51.390;8.102;2023-01-23T04:29:27;42.55;;;24.80;;
34212;SDS011;20477;51.390;8.102;2023-01-23T04:31:55;37.92;;;22.63;;
34212;SDS011;20477;51.390;8.102;2023-01-23T04:34:24;40.35;;;22.55;;
34212;SDS011;20477;51.390;8.102;2023-01-23T04:36:52;43.25;;;24.67;;
34212;SDS011;20477;51.390;8.102;2023-01-23T04:39:22;37.97;;;22.30;;
34212;SDS011;20477;51.390;8.102;2023-01-23T04:41:51;40.70;;;24.48;;
34212;SDS011;20477;51.390;8.102;2023-01-23T04:44:19;41.75;;;23.45;;
34212;SDS011;20477;51.390;8.102;2023-01-23T04:46:48;39.95;;;23.58;;
34212;SDS011;20477;51.390;8.102;2023-01-23T04:49:18;40.33;;;24.10;;
34212;SDS011;20477;51.390;8.102;2023-01-23T04:51:47;40.53;;;23.70;;
34212;SDS011;20477;51.390;8.102;2023-01-23T04:54:15;39.65;;;23.77;;
34212;SDS011;20477;51.390;8.102;2023-01-23T04:56:46;39.17;;;24.27;;
34212;SDS011;20477;51.390;8.102;2023-01-23T04:59:14;38.22;;;23.27;;
34212;SDS011;20477;51.390;8.102;2023-01-23T05:01:43;38.90;;;21.42;;
34212;SDS011;20477;51.390;8.102;2023-01-23T05:04:11;41.92;;;24.48;;
34212;SDS011;20477;51.390;8.102;2023-01-23T05:06:40;40.22;;;22.40;;
34212;SDS011;20477;51.390;8.102;2023-01-23T05:09:08;38.88;;;22.70;;
34212;SDS011;20477;51.390;8.102;2023-01-23T05:11:37;38.38;;;21.73;;
34212;SDS011;20477;51.390;8.102;2023-01-23T05:14:07;41.03;;;24.55;;
34212;SDS011;20477;51.390;8.102;2023-01-23T05:16:35;37.53;;;21.98;;
34212;SDS011;20477;51.390;8.102;2023-01-23T05:19:03;41.35;;;20.38;;
34212;SDS011;20477;51.390;8.102;2023-01-23T05:21:32;40.55;;;23.73;;
34212;SDS011;20477;51.390;8.102;2023-01-23T05:24:00;40.60;;;22.50;;
34212;SDS011;20477;51.390;8.102;2023-01-23T05:26:28;41.53;;;22.52;;
34212;SDS011;20477;51.390;8.102;2023-01-23T05:28:57;39.42;;;22.45;;
34212;SDS011;20477;51.390;8.102;2023-01-23T05:31:26;42.00;;;22.00;;
34212;SDS011;20477;51.390;8.102;2023-01-23T05:33:55;41.40;;;23.35;;
34212;SDS011;20477;51.390;8.102;2023-01-23T05:36:23;41.13;;;24.63;;
34212;SDS011;20477;51.390;8.102;2023-01-23T05:38:53;41.60;;;23.48;;
34212;SDS011;20477;51.390;8.102;2023-01-23T05:41:21;41.22;;;22.73;;
34212;SDS011;20477;51.390;8.102;2023-01-23T05:43:51;42.10;;;22.45;;
34212;SDS011;20477;51.390;8.102;2023-01-23T05:46:19;45.28;;;24.33;;
34212;SDS011;20477;51.390;8.102;2023-01-23T05:48:49;38.92;;;22.48;;
34212;SDS011;20477;51.390;8.102;2023-01-23T05:51:17;41.60;;;22.67;;
34212;SDS011;20477;51.390;8.102;2023-01-23T05:53:46;39.53;;;21.27;;
34212;SDS011;20477;51.390;8.102;2023-01-23T05:56:14;47.95;;;24.45;;
34212;SDS011;20477;51.390;8.102;2023-01-23T05:58:42;42.63;;;22.98;;
34212;SDS011;20477;51.390;8.102;2023-01-23T06:01:10;40.55;;;22.90;;
34212;SDS011;20477;51.390;8.102;2023-01-23T06:03:39;40.53;;;22.55;;
34212;SDS011;20477;51.390;8.102;2023-01-23T06:06:09;39.78;;;22.83;;
34212;SDS011;20477;51.390;8.102;2023-01-23T06:08:40;39.92;;;22.20;;
34212;SDS011;20477;51.390;8.102;2023-01-23T06:11:09;44.40;;;24.10;;
34212;SDS011;20477;51.390;8.102;2023-01-23T06:13:37;40.85;;;22.42;;
34212;SDS011;20477;51.390;8.102;2023-01-23T06:16:06;56.95;;;23.95;;
34212;SDS011;20477;51.390;8.102;2023-01-23T06:18:36;42.58;;;22.48;;
34212;SDS011;20477;51.390;8.102;2023-01-23T06:21:04;39.70;;;20.02;;
34212;SDS011;20477;51.390;8.102;2023-01-23T06:23:34;42.65;;;21.83;;
34212;SDS011;20477;51.390;8.102;2023-01-23T06:26:02;44.80;;;23.42;;
34212;SDS011;20477;51.390;8.102;2023-01-23T06:28:30;44.55;;;22.63;;
34212;SDS011;20477;51.390;8.102;2023-01-23T06:30:59;44.35;;;23.02;;
34212;SDS011;20477;51.390;8.102;2023-01-23T06:33:29;45.10;;;23.77;;
34212;SDS011;20477;51.390;8.102;2023-01-23T06:35:57;43.88;;;23.38;;
34212;SDS011;20477;51.390;8.102;2023-01-23T06:38:26;42.33;;;23.90;;
34212;SDS011;20477;51.390;8.102;2023-01-23T06:40:55;43.65;;;22.85;;
34212;SDS011;20477;51.390;8.102;2023-01-23T06:43:24;43.78;;;23.30;;
34212;SDS011;20477;51.390;8.102;2023-01-23T06:45:53;45.10;;;22.77;;
34212;SDS011;20477;51.390;8.102;2023-01-23T06:48:21;43.58;;;24.23;;
34212;SDS011;20477;51.390;8.102;2023-01-23T06:50:49;37.22;;;20.90;;
34212;SDS011;20477;51.390;8.102;2023-01-23T06:53:17;37.97;;;21.25;;
34212;SDS011;20477;51.390;8.102;2023-01-23T06:55:45;38.90;;;20.23;;
34212;SDS011;20477;51.390;8.102;2023-01-23T06:58:15;35.72;;;19.85;;
34212;SDS011;20477;51.390;8.102;2023-01-23T07:00:44;33.72;;;19.30;;
34212;SDS011;20477;51.390;8.102;2023-01-23T07:03:12;29.55;;;17.80;;
34212;SDS011;20477;51.390;8.102;2023-01-23T07:05:41;32.33;;;19.48;;
34212;SDS011;20477;51.390;8.102;2023-01-23T07:08:10;35.22;;;20.40;;
34212;SDS011;20477;51.390;8.102;2023-01-23T07:10:38;34.78;;;20.92;;
34212;SDS011;20477;51.390;8.102;2023-01-23T07:13:08;29.55;;;18.60;;
34212;SDS011;20477;51.390;8.102;2023-01-23T07:15:39;33.58;;;20.35;;
34212;SDS011;20477;51.390;8.102;2023-01-23T07:18:08;38.88;;;21.17;;
34212;SDS011;20477;51.390;8.102;2023-01-23T07:20:36;28.55;;;18.23;;
34212;SDS011;20477;51.390;8.102;2023-01-23T07:23:04;31.35;;;18.52;;
34212;SDS011;20477;51.390;8.102;2023-01-23T07:25:32;29.75;;;18.33;;
34212;SDS011;20477;51.390;8.102;2023-01-23T07:28:00;30.17;;;18.15;;
34212;SDS011;20477;51.390;8.102;2023-01-23T07:30:29;27.92;;;14.95;;
34212;SDS011;20477;51.390;8.102;2023-01-23T07:32:58;22.30;;;13.57;;
34212;SDS011;20477;51.390;8.102;2023-01-23T07:35:27;27.33;;;16.35;;
34212;SDS011;20477;51.390;8.102;2023-01-23T07:37:56;23.25;;;14.20;;
34212;SDS011;20477;51.390;8.102;2023-01-23T07:40:24;22.73;;;15.38;;
34212;SDS011;20477;51.390;8.102;2023-01-23T07:42:53;20.33;;;11.30;;
34212;SDS011;20477;51.390;8.102;2023-01-23T07:45:23;22.50;;;13.25;;
34212;SDS011;20477;51.390;8.102;2023-01-23T07:47:51;22.60;;;14.15;;
34212;SDS011;20477;51.390;8.102;2023-01-23T07:50:24;23.20;;;14.15;;
34212;SDS011;20477;51.390;8.102;2023-01-23T07:52:52;19.90;;;12.35;;
34212;SDS011;20477;51.390;8.102;2023-01-23T07:55:22;17.40;;;11.05;;
34212;SDS011;20477;51.390;8.102;2023-01-23T07:57:50;17.48;;;11.50;;
34212;SDS011;20477;51.390;8.102;2023-01-23T08:00:18;18.45;;;11.77;;
34212;SDS011;20477;51.390;8.102;2023-01-23T08:02:50;21.70;;;13.20;;
34212;SDS011;20477;51.390;8.102;2023-01-23T08:05:18;17.85;;;10.15;;
34212;SDS011;20477;51.390;8.102;2023-01-23T08:07:48;16.45;;;11.20;;
34212;SDS011;20477;51.390;8.102;2023-01-23T08:10:29;15.52;;;9.25;;
34212;SDS011;20477;51.390;8.102;2023-01-23T08:12:57;19.73;;;11.88;;
34212;SDS011;20477;51.390;8.102;2023-01-23T08:15:25;19.30;;;12.27;;
34212;SDS011;20477;51.390;8.102;2023-01-23T08:17:56;21.75;;;12.38;;
34212;SDS011;20477;51.390;8.102;2023-01-23T08:20:25;25.02;;;14.48;;
34212;SDS011;20477;51.390;8.102;2023-01-23T08:22:54;23.13;;;15.00;;
34212;SDS011;20477;51.390;8.102;2023-01-23T08:25:24;22.63;;;13.75;;
34212;SDS011;20477;51.390;8.102;2023-01-23T08:27:52;17.05;;;12.00;;
34212;SDS011;20477;51.390;8.102;2023-01-23T08:30:20;18.20;;;12.10;;
34212;SDS011;20477;51.390;8.102;2023-01-23T08:32:49;14.60;;;9.80;;
34212;SDS011;20477;51.390;8.102;2023-01-23T08:35:17;12.35;;;7.63;;
34212;SDS011;20477;51.390;8.102;2023-01-23T08:37:45;13.20;;;8.18;;
34212;SDS011;20477;51.390;8.102;2023-01-23T08:40:14;11.23;;;8.43;;
34212;SDS011;20477;51.390;8.102;2023-01-23T08:42:43;14.55;;;9.40;;
34212;SDS011;20477;51.390;8.102;2023-01-23T08:45:11;14.40;;;9.80;;
34212;SDS011;20477;51.390;8.102;2023-01-23T08:47:40;11.45;;;7.60;;
34212;SDS011;20477;51.390;8.102;2023-01-23T08:50:09;10.95;;;7.55;;
34212;SDS011;20477;51.390;8.102;2023-01-23T08:52:38;12.60;;;8.98;;
34212;SDS011;20477;51.390;8.102;2023-01-23T08:55:06;12.40;;;9.13;;
34212;SDS011;20477;51.390;8.102;2023-01-23T08:57:37;13.35;;;9.20;;
34212;SDS011;20477;51.390;8.102;2023-01-23T09:00:06;13.02;;;8.82;;
34212;SDS011;20477;51.390;8.102;2023-01-23T09:02:35;11.18;;;8.15;;
34212;SDS011;20477;51.390;8.102;2023-01-23T09:05:04;12.77;;;8.70;;
34212;SDS011;20477;51.390;8.102;2023-01-23T09:07:32;15.25;;;10.20;;
34212;SDS011;20477;51.390;8.102;2023-01-23T09:10:02;15.68;;;9.55;;
34212;SDS011;20477;51.390;8.102;2023-01-23T09:12:30;13.68;;;9.05;;
34212;SDS011;20477;51.390;8.102;2023-01-23T09:15:00;14.30;;;9.80;;
34212;SDS011;20477;51.390;8.102;2023-01-23T09:17:28;22.83;;;13.85;;
34212;SDS011;20477;51.390;8.102;2023-01-23T09:19:56;19.42;;;12.43;;
34212;SDS011;20477;51.390;8.102;2023-01-23T09:22:25;21.23;;;13.95;;
34212;SDS011;20477;51.390;8.102;2023-01-23T09:24:54;23.88;;;13.95;;
34212;SDS011;20477;51.390;8.102;2023-01-23T09:27:22;21.92;;;13.60;;
34212;SDS011;20477;51.390;8.102;2023-01-23T09:29:50;22.48;;;14.27;;
34212;SDS011;20477;51.390;8.102;2023-01-23T09:32:20;25.48;;;15.27;;
34212;SDS011;20477;51.390;8.102;2023-01-23T09:34:48;25.42;;;14.93;;
34212;SDS011;20477;51.390;8.102;2023-01-23T09:37:16;25.88;;;15.73;;
34212;SDS011;20477;51.390;8.102;2023-01-23T09:39:44;24.50;;;14.90;;
34212;SDS011;20477;51.390;8.102;2023-01-23T09:42:14;21.80;;;14.77;;
34212;SDS011;20477;51.390;8.102;2023-01-23T09:44:45;23.63;;;15.20;;
34212;SDS011;20477;51.390;8.102;2023-01-23T09:47:16;25.27;;;15.52;;
34212;SDS011;20477;51.390;8.102;2023-01-23T09:49:52;24.17;;;15.73;;
34212;SDS011;20477;51.390;8.102;2023-01-23T09:52:26;25.05;;;15.82;;
34212;SDS011;20477;51.390;8.102;2023-01-23T09:54:58;25.80;;;15.52;;
34212;SDS011;20477;51.390;8.102;2023-01-23T09:57:32;21.80;;;13.20;;
34212;SDS011;20477;51.390;8.102;2023-01-23T10:00:05;25.00;;;16.80;;
34212;SDS011;20477;51.390;8.102;2023-01-23T10:02:41;28.75;;;18.08;;
34212;SDS011;20477;51.390;8.102;2023-01-23T10:05:12;25.77;;;16.13;;
34212;SDS011;20477;51.390;8.102;2023-01-23T10:07:47;27.63;;;16.85;;
34212;SDS011;20477;51.390;8.102;2023-01-23T10:10:27;26.42;;;15.75;;
34212;SDS011;20477;51.390;8.102;2023-01-23T10:13:14;29.67;;;17.52;;
34212;SDS011;20477;51.390;8.102;2023-01-23T10:15:50;31.35;;;18.25;;
34212;SDS011;20477;51.390;8.102;2023-01-23T10:18:29;28.52;;;17.48;;
34212;SDS011;20477;51.390;8.102;2023-01-23T10:21:06;23.98;;;15.40;;
34212;SDS011;20477;51.390;8.102;2023-01-23T10:23:42;29.90;;;17.95;;
34212;SDS011;20477;51.390;8.102;2023-01-23T10:26:17;28.10;;;17.27;;
34212;SDS011;20477;51.390;8.102;2023-01-23T10:28:47;28.33;;;17.77;;
34212;SDS011;20477;51.390;8.102;2023-01-23T10:31:20;28.35;;;18.33;;
34212;SDS011;20477;51.390;8.102;2023-01-23T10:33:58;29.52;;;18.73;;
34212;SDS011;20477;51.390;8.102;2023-01-23T10:36:32;32.00;;;18.70;;
34212;SDS011;20477;51.390;8.102;2023-01-23T10:39:24;25.98;;;16.80;;
34212;SDS011;20477;51.390;8.102;2023-01-23T10:41:54;28.65;;;18.67;;
34212;SDS011;20477;51.390;8.102;2023-01-23T10:44:28;25.95;;;16.90;;
34212;SDS011;20477;51.390;8.102;2023-01-23T10:46:57;29.05;;;18.88;;
34212;SDS011;20477;51.390;8.102;2023-01-23T10:49:29;28.40;;;17.83;;
34212;SDS011;20477;51.390;8.102;2023-01-23T10:52:00;30.52;;;16.80;;
34212;SDS011;20477;51.390;8.102;2023-01-23T10:54:29;25.95;;;16.60;;
34212;SDS011;20477;51.390;8.102;2023-01-23T10:56:59;27.67;;;17.40;;
34212;SDS011;20477;51.390;8.102;2023-01-23T10:59:29;28.23;;;17.98;;
34212;SDS011;20477;51.390;8.102;2023-01-23T11:02:02;30.75;;;18.13;;
34212;SDS011;20477;51.390;8.102;2023-01-23T11:04:48;30.77;;;18.17;;
34212;SDS011;20477;51.390;8.102;2023-01-23T11:07:19;30.85;;;18.33;;
34212;SDS011;20477;51.390;8.102;2023-01-23T11:09:50;28.85;;;17.35;;
34212;SDS011;20477;51.390;8.102;2023-01-23T11:12:21;29.92;;;17.90;;
34212;SDS011;20477;51.390;8.102;2023-01-23T11:14:50;31.58;;;19.80;;
34212;SDS011;20477;51.390;8.102;2023-01-23T11:17:22;26.42;;;17.08;;
34212;SDS011;20477;51.390;8.102;2023-01-23T11:19:52;30.95;;;17.98;;
34212;SDS011;20477;51.390;8.102;2023-01-23T11:22:28;29.02;;;18.85;;
34212;SDS011;20477;51.390;8.102;2023-01-23T11:24:57;29.45;;;18.33;;
34212;SDS011;20477;51.390;8.102;2023-01-23T11:27:27;25.88;;;18.60;;
34212;SDS011;20477;51.390;8.102;2023-01-23T11:32:50;28.57;;;19.07;;
34212;SDS011;20477;51.390;8.102;2023-01-23T11:35:24;33.95;;;20.02;;
34212;SDS011;20477;51.390;8.102;2023-01-23T11:38:11;31.27;;;18.17;;
34212;SDS011;20477;51.390;8.102;2023-01-23T11:40:49;28.52;;;17.55;;
34212;SDS011;20477;51.390;8.102;2023-01-23T11:43:18;26.48;;;17.30;;
34212;SDS011;20477;51.390;8.102;2023-01-23T11:45:51;27.48;;;19.15;;
34212;SDS011;20477;51.390;8.102;2023-01-23T11:48:35;24.05;;;16.67;;
34212;SDS011;20477;51.390;8.102;2023-01-23T11:51:15;32.90;;;20.75;;
34212;SDS011;20477;51.390;8.102;2023-01-23T11:53:48;25.75;;;18.00;;
34212;SDS011;20477;51.390;8.102;2023-01-23T11:56:33;25.73;;;17.95;;
34212;SDS011;20477;51.390;8.102;2023-01-23T11:59:28;25.85;;;17.77;;
34212;SDS011;20477;51.390;8.102;2023-01-23T12:02:25;26.48;;;17.88;;
34212;SDS011;20477;51.390;8.102;2023-01-23T12:05:14;26.77;;;17.02;;
34212;SDS011;20477;51.390;8.102;2023-01-23T12:07:54;20.17;;;13.55;;
34212;SDS011;20477;51.390;8.102;2023-01-23T12:10:31;20.42;;;14.00;;
34212;SDS011;20477;51.390;8.102;2023-01-23T12:13:12;21.70;;;13.30;;
34212;SDS011;20477;51.390;8.102;2023-01-23T12:15:55;21.00;;;14.40;;
34212;SDS011;20477;51.390;8.102;2023-01-23T12:18:32;24.05;;;16.13;;
34212;SDS011;20477;51.390;8.102;2023-01-23T12:21:08;22.90;;;14.15;;
34212;SDS011;20477;51.390;8.102;2023-01-23T12:23:46;18.70;;;12.18;;
34212;SDS011;20477;51.390;8.102;2023-01-23T12:26:37;20.23;;;14.98;;
34212;SDS011;20477;51.390;8.102;2023-01-23T12:29:16;19.63;;;13.98;;
34212;SDS011;20477;51.390;8.102;2023-01-23T12:32:10;20.30;;;14.93;;
34212;SDS011;20477;51.390;8.102;2023-01-23T12:35:10;18.77;;;13.73;;
34212;SDS011;20477;51.390;8.102;2023-01-23T12:37:55;16.10;;;11.88;;
34212;SDS011;20477;51.390;8.102;2023-01-23T12:40:42;11.85;;;8.70;;
34212;SDS011;20477;51.390;8.102;2023-01-23T12:43:13;18.77;;;13.57;;
34212;SDS011;20477;51.390;8.102;2023-01-23T12:45:47;20.02;;;13.73;;
34212;SDS011;20477;51.390;8.102;2023-01-23T12:48:26;18.58;;;13.50;;
34212;SDS011;20477;51.390;8.102;2023-01-23T12:50:59;19.65;;;14.30;;
34212;SDS011;20477;51.390;8.102;2023-01-23T12:53:39;18.20;;;13.57;;
34212;SDS011;20477;51.390;8.102;2023-01-23T12:56:12;19.83;;;14.73;;
34212;SDS011;20477;51.390;8.102;2023-01-23T12:58:43;20.95;;;14.50;;
34212;SDS011;20477;51.390;8.102;2023-01-23T13:01:19;21.93;;;14.67;;
34212;SDS011;20477;51.390;8.102;2023-01-23T13:04:00;19.42;;;13.43;;
34212;SDS011;20477;51.390;8.102;2023-01-23T13:06:34;18.40;;;12.82;;
34212;SDS011;20477;51.390;8.102;2023-01-23T13:09:14;20.10;;;13.20;;
34212;SDS011;20477;51.390;8.102;2023-01-23T13:11:59;20.88;;;14.82;;
34212;SDS011;20477;51.390;8.102;2023-01-23T13:14:38;22.55;;;14.25;;
34212;SDS011;20477;51.390;8.102;2023-01-23T13:17:36;27.00;;;16.45;;
34212;SDS011;20477;51.390;8.102;2023-01-23T13:28:59;29.77;;;14.32;;
34212;SDS011;20477;51.390;8.102;2023-01-23T13:31:33;21.98;;;13.65;;
34212;SDS011;20477;51.390;8.102;2023-01-23T13:40:21;23.95;;;14.32;;
34212;SDS011;20477;51.390;8.102;2023-01-23T13:42:50;22.15;;;14.48;;
34212;SDS011;20477;51.390;8.102;2023-01-23T13:45:31;20.13;;;12.98;;
34212;SDS011;20477;51.390;8.102;2023-01-23T13:48:14;19.35;;;13.50;;
34212;SDS011;20477;51.390;8.102;2023-01-23T13:51:25;24.05;;;15.10;;
34212;SDS011;20477;51.390;8.102;2023-01-23T13:54:10;22.92;;;14.85;;
34212;SDS011;20477;51.390;8.102;2023-01-23T13:59:53;22.10;;;14.57;;
34212;SDS011;20477;51.390;8.102;2023-01-23T14:02:44;21.77;;;13.77;;
34212;SDS011;20477;51.390;8.102;2023-01-23T14:14:53;23.10;;;13.68;;
34212;SDS011;20477;51.390;8.102;2023-01-23T14:21:17;20.65;;;13.52;;
34212;SDS011;20477;51.390;8.102;2023-01-23T14:24:01;20.77;;;13.32;;
34212;SDS011;20477;51.390;8.102;2023-01-23T14:26:30;22.70;;;14.10;;
34212;SDS011;20477;51.390;8.102;2023-01-23T14:29:00;19.98;;;13.20;;
34212;SDS011;20477;51.390;8.102;2023-01-23T14:31:29;23.80;;;16.10;;
34212;SDS011;20477;51.390;8.102;2023-01-23T14:34:01;17.75;;;12.32;;
34212;SDS011;20477;51.390;8.102;2023-01-23T14:36:44;15.88;;;11.15;;
34212;SDS011;20477;51.390;8.102;2023-01-23T14:39:14;21.15;;;12.48;;
34212;SDS011;20477;51.390;8.102;2023-01-23T14:41:44;18.55;;;12.80;;
34212;SDS011;20477;51.390;8.102;2023-01-23T14:44:16;19.98;;;13.25;;
34212;SDS011;20477;51.390;8.102;2023-01-23T14:46:48;19.23;;;9.63;;
34212;SDS011;20477;51.390;8.102;2023-01-23T14:49:21;15.90;;;11.07;;
34212;SDS011;20477;51.390;8.102;2023-01-23T14:51:53;14.43;;;10.00;;
34212;SDS011;20477;51.390;8.102;2023-01-23T14:54:25;14.00;;;9.20;;
34212;SDS011;20477;51.390;8.102;2023-01-23T14:56:59;12.30;;;9.15;;
34212;SDS011;20477;51.390;8.102;2023-01-23T14:59:30;13.70;;;9.00;;
34212;SDS011;20477;51.390;8.102;2023-01-23T15:02:01;13.77;;;9.40;;
34212;SDS011;20477;51.390;8.102;2023-01-23T15:07:46;12.55;;;8.57;;
34212;SDS011;20477;51.390;8.102;2023-01-23T15:10:18;12.50;;;8.25;;
34212;SDS011;20477;51.390;8.102;2023-01-23T15:12:49;10.30;;;7.57;;
34212;SDS011;20477;51.390;8.102;2023-01-23T15:15:19;11.98;;;7.70;;
34212;SDS011;20477;51.390;8.102;2023-01-23T15:17:50;12.95;;;8.25;;
34212;SDS011;20477;51.390;8.102;2023-01-23T15:20:28;10.52;;;7.72;;
34212;SDS011;20477;51.390;8.102;2023-01-23T15:23:11;12.23;;;8.15;;
34212;SDS011;20477;51.390;8.102;2023-01-23T15:25:42;11.52;;;7.38;;
34212;SDS011;20477;51.390;8.102;2023-01-23T15:28:29;13.10;;;9.27;;
34212;SDS011;20477;51.390;8.102;2023-01-23T15:30:58;13.50;;;8.95;;